Terminal Aerodrome Forecast
Issued by NWS

Home | Current Version | Previous Version | Text Only | Print | Product List | Glossary On
Versions: 1 2 3 4 5 6 7 8 9 10 11 12 13 14 15 16
000
FTUS43 KGRB 270527
TAFMTW
TAF
KMTW 270527Z 2706/2806 23005KT P6SM SCT100 SCT250
     FM270900 27004KT P6SM SCT070 BKN120
     FM271400 30005KT P6SM VCSH SCT060 OVC120
     FM272100 02009KT P6SM VCSH BKN060 PROB30 2721/2803 4SM -SHRA
      BKN040
     FM280300 04004KT 4SM -SHRA BKN025 OVC040=

USA.gov is the U.S. government's official web portal to all federal, state and local government web resources and services.